sensor_id;sensor_type;location;lat;lon;timestamp;temperature;humidity
76838;DHT22;65797;47.352;8.164;2023-06-19T00:00:28;19.40;99.90
76838;DHT22;65797;47.352;8.164;2023-06-19T00:02:58;19.40;99.90
76838;DHT22;65797;47.352;8.164;2023-06-19T00:05:24;19.40;99.90
76838;DHT22;65797;47.352;8.164;2023-06-19T00:07:56;19.20;99.90
76838;DHT22;65797;47.352;8.164;2023-06-19T00:10:24;19.20;99.90
76838;DHT22;65797;47.352;8.164;2023-06-19T00:12:54;19.20;99.90
76838;DHT22;65797;47.352;8.164;2023-06-19T00:15:25;19.20;99.90
76838;DHT22;65797;47.352;8.164;2023-06-19T00:17:56;19.20;99.90
76838;DHT22;65797;47.352;8.164;2023-06-19T00:20:25;19.30;99.90
76838;DHT22;65797;47.352;8.164;2023-06-19T00:22:52;19.30;99.90
76838;DHT22;65797;47.352;8.164;2023-06-19T00:25:19;19.30;99.90
76838;DHT22;65797;47.352;8.164;2023-06-19T00:27:53;19.30;99.90
76838;DHT22;65797;47.352;8.164;2023-06-19T00:30:21;19.30;99.90
76838;DHT22;65797;47.352;8.164;2023-06-19T00:32:47;19.30;99.90
76838;DHT22;65797;47.352;8.164;2023-06-19T00:35:18;19.20;99.90
76838;DHT22;65797;47.352;8.164;2023-06-19T00:37:44;19.30;99.90
76838;DHT22;65797;47.352;8.164;2023-06-19T00:40:30;19.20;99.90
76838;DHT22;65797;47.352;8.164;2023-06-19T00:42:57;19.10;99.90
76838;DHT22;65797;47.352;8.164;2023-06-19T00:45:23;19.10;99.90
76838;DHT22;65797;47.352;8.164;2023-06-19T00:47:53;19.20;99.90
76838;DHT22;65797;47.352;8.164;2023-06-19T00:50:20;19.30;99.90
76838;DHT22;65797;47.352;8.164;2023-06-19T00:52:47;19.30;99.90
76838;DHT22;65797;47.352;8.164;2023-06-19T00:55:17;19.30;99.90
76838;DHT22;65797;47.352;8.164;2023-06-19T00:57:43;19.30;99.90
76838;DHT22;65797;47.352;8.164;2023-06-19T01:00:10;19.30;99.90
76838;DHT22;65797;47.352;8.164;2023-06-19T01:02:38;19.30;99.90
76838;DHT22;65797;47.352;8.164;2023-06-19T01:05:05;19.30;99.90
76838;DHT22;65797;47.352;8.164;2023-06-19T01:08:10;19.40;99.90
76838;DHT22;65797;47.352;8.164;2023-06-19T01:10:43;19.40;99.90
76838;DHT22;65797;47.352;8.164;2023-06-19T01:13:19;19.30;99.90
76838;DHT22;65797;47.352;8.164;2023-06-19T01:15:47;19.30;99.90
76838;DHT22;65797;47.352;8.164;2023-06-19T01:18:13;19.30;99.90
76838;DHT22;65797;47.352;8.164;2023-06-19T01:20:40;19.30;99.90
76838;DHT22;65797;47.352;8.164;2023-06-19T01:23:09;19.30;99.90
76838;DHT22;65797;47.352;8.164;2023-06-19T01:25:36;19.40;99.90
76838;DHT22;65797;47.352;8.164;2023-06-19T01:28:05;19.40;99.90
76838;DHT22;65797;47.352;8.164;2023-06-19T01:30:35;19.30;1.00
76838;DHT22;65797;47.352;8.164;2023-06-19T01:33:15;19.40;1.00
76838;DHT22;65797;47.352;8.164;2023-06-19T01:35:43;19.30;1.00
76838;DHT22;65797;47.352;8.164;2023-06-19T01:38:11;19.00;1.00
76838;DHT22;65797;47.352;8.164;2023-06-19T01:40:38;19.00;1.00
76838;DHT22;65797;47.352;8.164;2023-06-19T01:43:04;19.00;1.00
76838;DHT22;65797;47.352;8.164;2023-06-19T01:45:31;19.00;1.00
76838;DHT22;65797;47.352;8.164;2023-06-19T01:47:57;19.00;1.00
76838;DHT22;65797;47.352;8.164;2023-06-19T01:50:24;19.00;1.00
76838;DHT22;65797;47.352;8.164;2023-06-19T01:52:51;18.90;1.00
76838;DHT22;65797;47.352;8.164;2023-06-19T01:55:17;18.90;1.00
76838;DHT22;65797;47.352;8.164;2023-06-19T01:57:42;18.90;1.00
76838;DHT22;65797;47.352;8.164;2023-06-19T02:00:09;18.90;1.00
76838;DHT22;65797;47.352;8.164;2023-06-19T02:02:38;19.00;1.00
76838;DHT22;65797;47.352;8.164;2023-06-19T02:05:04;18.90;1.00
76838;DHT22;65797;47.352;8.164;2023-06-19T02:07:30;18.90;1.00
76838;DHT22;65797;47.352;8.164;2023-06-19T02:09:57;19.00;1.00
76838;DHT22;65797;47.352;8.164;2023-06-19T02:12:23;19.00;1.00
76838;DHT22;65797;47.352;8.164;2023-06-19T02:14:49;19.00;1.00
76838;DHT22;65797;47.352;8.164;2023-06-19T02:17:14;19.00;1.00
76838;DHT22;65797;47.352;8.164;2023-06-19T02:19:40;19.10;1.00
76838;DHT22;65797;47.352;8.164;2023-06-19T02:22:06;19.10;1.00
76838;DHT22;65797;47.352;8.164;2023-06-19T02:24:32;19.00;1.00
76838;DHT22;65797;47.352;8.164;2023-06-19T02:26:58;18.90;7.20
76838;DHT22;65797;47.352;8.164;2023-06-19T02:29:25;18.70;22.40
76838;DHT22;65797;47.352;8.164;2023-06-19T02:31:50;18.60;86.30
76838;DHT22;65797;47.352;8.164;2023-06-19T02:34:16;18.60;72.10
76838;DHT22;65797;47.352;8.164;2023-06-19T02:36:42;18.70;83.90
76838;DHT22;65797;47.352;8.164;2023-06-19T02:39:08;18.70;40.80
76838;DHT22;65797;47.352;8.164;2023-06-19T02:41:34;18.80;38.80
76838;DHT22;65797;47.352;8.164;2023-06-19T02:44:01;18.80;23.90
76838;DHT22;65797;47.352;8.164;2023-06-19T02:46:27;18.80;58.40
76838;DHT22;65797;47.352;8.164;2023-06-19T02:48:52;18.90;61.30
76838;DHT22;65797;47.352;8.164;2023-06-19T02:51:18;18.90;81.10
76838;DHT22;65797;47.352;8.164;2023-06-19T02:53:44;19.00;83.10
76838;DHT22;65797;47.352;8.164;2023-06-19T02:56:11;19.00;99.90
76838;DHT22;65797;47.352;8.164;2023-06-19T02:58:37;19.10;99.90
76838;DHT22;65797;47.352;8.164;2023-06-19T03:01:03;19.00;99.90
76838;DHT22;65797;47.352;8.164;2023-06-19T03:03:32;19.00;99.90
76838;DHT22;65797;47.352;8.164;2023-06-19T03:06:05;19.00;99.90
76838;DHT22;65797;47.352;8.164;2023-06-19T03:08:34;19.00;99.90
76838;DHT22;65797;47.352;8.164;2023-06-19T03:11:00;18.90;99.90
76838;DHT22;65797;47.352;8.164;2023-06-19T03:13:26;18.90;99.90
76838;DHT22;65797;47.352;8.164;2023-06-19T03:15:52;18.80;99.90
76838;DHT22;65797;47.352;8.164;2023-06-19T03:18:17;18.80;99.90
76838;DHT22;65797;47.352;8.164;2023-06-19T03:20:43;18.70;99.90
76838;DHT22;65797;47.352;8.164;2023-06-19T03:23:09;18.80;99.90
76838;DHT22;65797;47.352;8.164;2023-06-19T03:25:34;18.80;99.90
76838;DHT22;65797;47.352;8.164;2023-06-19T03:28:01;18.80;99.90
76838;DHT22;65797;47.352;8.164;2023-06-19T03:30:27;18.80;99.90
76838;DHT22;65797;47.352;8.164;2023-06-19T03:32:53;18.80;99.90
76838;DHT22;65797;47.352;8.164;2023-06-19T03:35:19;18.70;99.90
76838;DHT22;65797;47.352;8.164;2023-06-19T03:37:45;18.80;99.90
76838;DHT22;65797;47.352;8.164;2023-06-19T03:40:11;18.70;99.90
76838;DHT22;65797;47.352;8.164;2023-06-19T03:42:39;18.70;99.90
76838;DHT22;65797;47.352;8.164;2023-06-19T03:45:06;18.70;99.90
76838;DHT22;65797;47.352;8.164;2023-06-19T03:47:31;18.80;99.90
76838;DHT22;65797;47.352;8.164;2023-06-19T03:49:57;18.80;99.90
76838;DHT22;65797;47.352;8.164;2023-06-19T03:52:23;18.80;99.90
76838;DHT22;65797;47.352;8.164;2023-06-19T03:54:49;18.70;99.90
76838;DHT22;65797;47.352;8.164;2023-06-19T03:57:15;18.70;99.90
76838;DHT22;65797;47.352;8.164;2023-06-19T03:59:40;18.70;99.90
76838;DHT22;65797;47.352;8.164;2023-06-19T04:02:06;18.60;99.90
76838;DHT22;65797;47.352;8.164;2023-06-19T04:04:32;18.60;99.90
76838;DHT22;65797;47.352;8.164;2023-06-19T04:06:57;18.60;99.90
76838;DHT22;65797;47.352;8.164;2023-06-19T04:09:25;18.60;99.90
76838;DHT22;65797;47.352;8.164;2023-06-19T04:11:50;18.60;99.90
76838;DHT22;65797;47.352;8.164;2023-06-19T04:14:16;18.60;99.90
76838;DHT22;65797;47.352;8.164;2023-06-19T04:16:42;18.60;99.90
76838;DHT22;65797;47.352;8.164;2023-06-19T04:19:08;18.70;99.90
76838;DHT22;65797;47.352;8.164;2023-06-19T04:21:33;18.60;99.90
76838;DHT22;65797;47.352;8.164;2023-06-19T04:23:59;18.60;99.90
76838;DHT22;65797;47.352;8.164;2023-06-19T04:26:25;18.60;99.90
76838;DHT22;65797;47.352;8.164;2023-06-19T04:28:50;18.70;99.90
76838;DHT22;65797;47.352;8.164;2023-06-19T04:31:16;18.70;99.90
76838;DHT22;65797;47.352;8.164;2023-06-19T04:33:44;18.70;99.90
76838;DHT22;65797;47.352;8.164;2023-06-19T04:36:10;18.80;99.90
76838;DHT22;65797;47.352;8.164;2023-06-19T04:38:36;18.80;99.90
76838;DHT22;65797;47.352;8.164;2023-06-19T04:41:02;18.70;99.90
76838;DHT22;65797;47.352;8.164;2023-06-19T04:43:27;18.60;99.90
76838;DHT22;65797;47.352;8.164;2023-06-19T04:45:53;18.60;99.90
76838;DHT22;65797;47.352;8.164;2023-06-19T04:48:19;18.60;99.90
76838;DHT22;65797;47.352;8.164;2023-06-19T04:50:44;18.60;99.90
76838;DHT22;65797;47.352;8.164;2023-06-19T04:53:10;18.70;99.90
76838;DHT22;65797;47.352;8.164;2023-06-19T04:55:37;18.70;99.90
76838;DHT22;65797;47.352;8.164;2023-06-19T04:58:03;18.70;99.90
76838;DHT22;65797;47.352;8.164;2023-06-19T05:00:28;18.70;99.90
76838;DHT22;65797;47.352;8.164;2023-06-19T05:02:54;18.80;99.90
76838;DHT22;65797;47.352;8.164;2023-06-19T05:05:25;18.70;99.90
76838;DHT22;65797;47.352;8.164;2023-06-19T05:07:51;18.80;99.90
76838;DHT22;65797;47.352;8.164;2023-06-19T05:10:16;18.70;99.90
76838;DHT22;65797;47.352;8.164;2023-06-19T05:12:42;18.70;99.90
76838;DHT22;65797;47.352;8.164;2023-06-19T05:15:08;18.60;99.90
76838;DHT22;65797;47.352;8.164;2023-06-19T05:17:34;18.60;99.90
76838;DHT22;65797;47.352;8.164;2023-06-19T05:20:00;18.70;1.00
76838;DHT22;65797;47.352;8.164;2023-06-19T05:22:25;18.70;99.90
76838;DHT22;65797;47.352;8.164;2023-06-19T05:24:52;18.80;1.00
76838;DHT22;65797;47.352;8.164;2023-06-19T05:27:17;18.80;1.00
76838;DHT22;65797;47.352;8.164;2023-06-19T05:29:43;18.80;1.00
76838;DHT22;65797;47.352;8.164;2023-06-19T05:32:09;18.80;1.00
76838;DHT22;65797;47.352;8.164;2023-06-19T05:34:34;18.80;1.00
76838;DHT22;65797;47.352;8.164;2023-06-19T05:37:00;18.70;99.90
76838;DHT22;65797;47.352;8.164;2023-06-19T05:39:29;18.70;1.00
76838;DHT22;65797;47.352;8.164;2023-06-19T05:41:54;18.70;1.00
76838;DHT22;65797;47.352;8.164;2023-06-19T05:44:20;18.80;1.00
76838;DHT22;65797;47.352;8.164;2023-06-19T05:46:46;18.80;1.00
76838;DHT22;65797;47.352;8.164;2023-06-19T05:49:11;18.80;1.00
76838;DHT22;65797;47.352;8.164;2023-06-19T05:51:37;18.80;1.00
76838;DHT22;65797;47.352;8.164;2023-06-19T05:54:03;18.90;99.90
76838;DHT22;65797;47.352;8.164;2023-06-19T05:56:33;19.00;99.90
76838;DHT22;65797;47.352;8.164;2023-06-19T05:59:13;18.80;99.90
76838;DHT22;65797;47.352;8.164;2023-06-19T06:01:40;18.90;99.90
76838;DHT22;65797;47.352;8.164;2023-06-19T06:04:05;18.90;99.90
76838;DHT22;65797;47.352;8.164;2023-06-19T06:06:31;19.20;99.90
76838;DHT22;65797;47.352;8.164;2023-06-19T06:08:57;19.30;99.90
76838;DHT22;65797;47.352;8.164;2023-06-19T06:11:23;19.40;99.90
76838;DHT22;65797;47.352;8.164;2023-06-19T06:13:48;19.50;99.90
76838;DHT22;65797;47.352;8.164;2023-06-19T06:16:14;19.70;99.90
76838;DHT22;65797;47.352;8.164;2023-06-19T06:18:41;19.90;99.90
76838;DHT22;65797;47.352;8.164;2023-06-19T06:21:09;20.10;99.90
76838;DHT22;65797;47.352;8.164;2023-06-19T06:23:35;20.60;99.90
76838;DHT22;65797;47.352;8.164;2023-06-19T06:26:01;20.60;99.90
76838;DHT22;65797;47.352;8.164;2023-06-19T06:28:28;20.40;99.90
76838;DHT22;65797;47.352;8.164;2023-06-19T06:30:54;20.30;99.90
76838;DHT22;65797;47.352;8.164;2023-06-19T06:33:20;20.30;99.90
76838;DHT22;65797;47.352;8.164;2023-06-19T06:35:46;20.30;99.90
76838;DHT22;65797;47.352;8.164;2023-06-19T06:38:12;20.30;99.90
76838;DHT22;65797;47.352;8.164;2023-06-19T06:40:37;20.40;99.90
76838;DHT22;65797;47.352;8.164;2023-06-19T06:43:03;20.50;99.90
76838;DHT22;65797;47.352;8.164;2023-06-19T06:45:29;20.50;99.90
76838;DHT22;65797;47.352;8.164;2023-06-19T06:47:55;20.60;99.90
76838;DHT22;65797;47.352;8.164;2023-06-19T06:50:20;20.60;8.10
76838;DHT22;65797;47.352;8.164;2023-06-19T06:52:46;20.80;1.00
76838;DHT22;65797;47.352;8.164;2023-06-19T06:55:11;20.90;21.50
76838;DHT22;65797;47.352;8.164;2023-06-19T06:57:37;20.90;7.50
76838;DHT22;65797;47.352;8.164;2023-06-19T07:00:04;21.00;1.00
76838;DHT22;65797;47.352;8.164;2023-06-19T07:02:31;21.10;1.00
76838;DHT22;65797;47.352;8.164;2023-06-19T07:04:56;21.20;1.00
76838;DHT22;65797;47.352;8.164;2023-06-19T07:07:22;21.20;1.00
76838;DHT22;65797;47.352;8.164;2023-06-19T07:09:48;21.20;1.00
76838;DHT22;65797;47.352;8.164;2023-06-19T07:12:13;21.30;1.00
76838;DHT22;65797;47.352;8.164;2023-06-19T07:14:39;21.40;1.00
76838;DHT22;65797;47.352;8.164;2023-06-19T07:17:05;21.50;1.00
76838;DHT22;65797;47.352;8.164;2023-06-19T07:19:32;21.60;1.00
76838;DHT22;65797;47.352;8.164;2023-06-19T07:21:59;21.80;1.00
76838;DHT22;65797;47.352;8.164;2023-06-19T07:24:24;22.00;1.00
76838;DHT22;65797;47.352;8.164;2023-06-19T07:26:50;22.20;1.00
76838;DHT22;65797;47.352;8.164;2023-06-19T07:29:16;22.20;1.00
76838;DHT22;65797;47.352;8.164;2023-06-19T07:31:42;22.30;1.00
76838;DHT22;65797;47.352;8.164;2023-06-19T07:34:08;22.40;1.00
76838;DHT22;65797;47.352;8.164;2023-06-19T07:36:34;22.50;1.00
76838;DHT22;65797;47.352;8.164;2023-06-19T07:38:59;22.50;1.00
76838;DHT22;65797;47.352;8.164;2023-06-19T07:41:25;23.20;99.90
76838;DHT22;65797;47.352;8.164;2023-06-19T07:43:51;23.70;99.90
76838;DHT22;65797;47.352;8.164;2023-06-19T07:46:16;24.30;99.90
76838;DHT22;65797;47.352;8.164;2023-06-19T07:48:42;24.40;99.90
76838;DHT22;65797;47.352;8.164;2023-06-19T07:51:08;24.50;99.90
76838;DHT22;65797;47.352;8.164;2023-06-19T07:53:34;24.70;99.90
76838;DHT22;65797;47.352;8.164;2023-06-19T07:55:59;25.30;99.90
76838;DHT22;65797;47.352;8.164;2023-06-19T07:58:25;25.60;99.90
76838;DHT22;65797;47.352;8.164;2023-06-19T08:00:51;25.50;99.90
76838;DHT22;65797;47.352;8.164;2023-06-19T08:03:17;25.90;99.90
76838;DHT22;65797;47.352;8.164;2023-06-19T08:05:43;25.90;99.90
76838;DHT22;65797;47.352;8.164;2023-06-19T08:08:08;26.20;99.00
76838;DHT22;65797;47.352;8.164;2023-06-19T08:10:34;26.40;95.70
76838;DHT22;65797;47.352;8.164;2023-06-19T08:13:00;26.30;91.50
76838;DHT22;65797;47.352;8.164;2023-06-19T08:15:25;26.60;90.80
76838;DHT22;65797;47.352;8.164;2023-06-19T08:17:52;26.40;62.80
76838;DHT22;65797;47.352;8.164;2023-06-19T08:20:17;26.20;61.30
76838;DHT22;65797;47.352;8.164;2023-06-19T08:22:45;25.80;64.60
76838;DHT22;65797;47.352;8.164;2023-06-19T08:25:10;26.10;67.40
76838;DHT22;65797;47.352;8.164;2023-06-19T08:27:37;26.10;62.60
76838;DHT22;65797;47.352;8.164;2023-06-19T08:30:03;26.50;61.90
76838;DHT22;65797;47.352;8.164;2023-06-19T08:32:28;27.20;54.20
76838;DHT22;65797;47.352;8.164;2023-06-19T08:34:54;27.00;46.60
76838;DHT22;65797;47.352;8.164;2023-06-19T08:37:20;27.50;54.80
76838;DHT22;65797;47.352;8.164;2023-06-19T08:39:45;27.60;32.60
76838;DHT22;65797;47.352;8.164;2023-06-19T08:42:11;28.00;42.40
76838;DHT22;65797;47.352;8.164;2023-06-19T08:44:37;28.40;41.70
76838;DHT22;65797;47.352;8.164;2023-06-19T08:47:04;28.10;29.70
76838;DHT22;65797;47.352;8.164;2023-06-19T08:49:31;27.60;29.00
76838;DHT22;65797;47.352;8.164;2023-06-19T08:51:59;28.00;34.50
76838;DHT22;65797;47.352;8.164;2023-06-19T08:54:24;28.10;31.10
76838;DHT22;65797;47.352;8.164;2023-06-19T08:56:50;28.00;28.10
76838;DHT22;65797;47.352;8.164;2023-06-19T08:59:19;27.80;27.00
76838;DHT22;65797;47.352;8.164;2023-06-19T09:01:51;27.50;24.70
76838;DHT22;65797;47.352;8.164;2023-06-19T09:04:18;27.40;26.20
76838;DHT22;65797;47.352;8.164;2023-06-19T09:09:19;27.90;31.80
76838;DHT22;65797;47.352;8.164;2023-06-19T09:12:04;27.90;26.90
76838;DHT22;65797;47.352;8.164;2023-06-19T09:14:35;27.80;24.60
76838;DHT22;65797;47.352;8.164;2023-06-19T09:17:06;28.00;25.40
76838;DHT22;65797;47.352;8.164;2023-06-19T09:19:38;28.10;23.80
76838;DHT22;65797;47.352;8.164;2023-06-19T09:22:12;28.00;23.60
76838;DHT22;65797;47.352;8.164;2023-06-19T09:24:39;28.40;25.50
76838;DHT22;65797;47.352;8.164;2023-06-19T09:27:19;28.50;25.70
76838;DHT22;65797;47.352;8.164;2023-06-19T09:29:47;28.70;23.00
76838;DHT22;65797;47.352;8.164;2023-06-19T09:32:23;28.20;20.80
76838;DHT22;65797;47.352;8.164;2023-06-19T09:34:51;28.30;19.70
76838;DHT22;65797;47.352;8.164;2023-06-19T09:40:00;27.60;17.50
76838;DHT22;65797;47.352;8.164;2023-06-19T09:42:32;27.40;19.30
76838;DHT22;65797;47.352;8.164;2023-06-19T09:50:03;28.00;18.20
76838;DHT22;65797;47.352;8.164;2023-06-19T09:52:29;28.70;23.70
76838;DHT22;65797;47.352;8.164;2023-06-19T09:54:56;28.90;23.00
76838;DHT22;65797;47.352;8.164;2023-06-19T09:57:23;28.80;23.70
76838;DHT22;65797;47.352;8.164;2023-06-19T09:59:55;29.20;21.60
76838;DHT22;65797;47.352;8.164;2023-06-19T10:02:26;29.40;22.40
76838;DHT22;65797;47.352;8.164;2023-06-19T10:04:54;29.20;16.20
76838;DHT22;65797;47.352;8.164;2023-06-19T10:07:26;29.20;15.20
76838;DHT22;65797;47.352;8.164;2023-06-19T10:10:00;29.00;12.00
76838;DHT22;65797;47.352;8.164;2023-06-19T10:12:43;28.90;12.70
76838;DHT22;65797;47.352;8.164;2023-06-19T10:17:35;29.30;14.40
76838;DHT22;65797;47.352;8.164;2023-06-19T10:20:01;29.20;10.70
76838;DHT22;65797;47.352;8.164;2023-06-19T10:22:33;29.60;20.70
76838;DHT22;65797;47.352;8.164;2023-06-19T10:24:58;29.70;11.50
76838;DHT22;65797;47.352;8.164;2023-06-19T10:27:25;30.00;11.30
76838;DHT22;65797;47.352;8.164;2023-06-19T10:29:54;29.70;11.20
76838;DHT22;65797;47.352;8.164;2023-06-19T10:32:21;29.90;10.10
76838;DHT22;65797;47.352;8.164;2023-06-19T10:34:48;29.80;8.90
76838;DHT22;65797;47.352;8.164;2023-06-19T10:37:17;30.10;10.50
76838;DHT22;65797;47.352;8.164;2023-06-19T10:39:43;30.10;8.70
76838;DHT22;65797;47.352;8.164;2023-06-19T10:42:10;30.30;7.50
76838;DHT22;65797;47.352;8.164;2023-06-19T10:44:36;29.90;3.90
76838;DHT22;65797;47.352;8.164;2023-06-19T10:47:05;30.30;6.80
76838;DHT22;65797;47.352;8.164;2023-06-19T10:49:32;30.30;4.10
76838;DHT22;65797;47.352;8.164;2023-06-19T10:51:59;30.50;6.30
76838;DHT22;65797;47.352;8.164;2023-06-19T10:54:26;30.60;4.00
76838;DHT22;65797;47.352;8.164;2023-06-19T10:56:53;31.00;5.30
76838;DHT22;65797;47.352;8.164;2023-06-19T10:59:20;31.20;5.30
76838;DHT22;65797;47.352;8.164;2023-06-19T11:01:46;31.20;7.90
76838;DHT22;65797;47.352;8.164;2023-06-19T11:04:14;31.60;7.90
76838;DHT22;65797;47.352;8.164;2023-06-19T11:06:41;31.50;7.20
76838;DHT22;65797;47.352;8.164;2023-06-19T11:09:08;31.60;3.20
76838;DHT22;65797;47.352;8.164;2023-06-19T11:11:46;31.70;1.00
76838;DHT22;65797;47.352;8.164;2023-06-19T11:14:13;31.20;1.00
76838;DHT22;65797;47.352;8.164;2023-06-19T11:16:42;31.20;1.00
76838;DHT22;65797;47.352;8.164;2023-06-19T11:19:14;31.60;1.00
76838;DHT22;65797;47.352;8.164;2023-06-19T11:21:40;31.10;1.00
76838;DHT22;65797;47.352;8.164;2023-06-19T11:24:14;31.10;1.00
76838;DHT22;65797;47.352;8.164;2023-06-19T11:26:41;31.70;1.00
76838;DHT22;65797;47.352;8.164;2023-06-19T11:31:44;32.60;1.00
76838;DHT22;65797;47.352;8.164;2023-06-19T11:34:11;32.70;1.00
76838;DHT22;65797;47.352;8.164;2023-06-19T11:36:41;32.70;1.00
76838;DHT22;65797;47.352;8.164;2023-06-19T11:41:45;32.60;1.00
76838;DHT22;65797;47.352;8.164;2023-06-19T11:44:11;32.40;1.00
76838;DHT22;65797;47.352;8.164;2023-06-19T11:46:37;32.70;1.00
76838;DHT22;65797;47.352;8.164;2023-06-19T12:25:19;31.90;1.00
76838;DHT22;65797;47.352;8.164;2023-06-19T12:35:31;31.40;1.00
76838;DHT22;65797;47.352;8.164;2023-06-19T12:37:57;31.10;1.00
76838;DHT22;65797;47.352;8.164;2023-06-19T12:40:23;30.90;1.00
76838;DHT22;65797;47.352;8.164;2023-06-19T12:42:48;30.70;1.00
76838;DHT22;65797;47.352;8.164;2023-06-19T12:45:15;31.10;1.00
76838;DHT22;65797;47.352;8.164;2023-06-19T12:47:41;31.50;1.00
76838;DHT22;65797;47.352;8.164;2023-06-19T12:50:07;31.70;1.00
76838;DHT22;65797;47.352;8.164;2023-06-19T12:52:36;32.20;1.00
76838;DHT22;65797;47.352;8.164;2023-06-19T12:55:02;31.70;1.00
76838;DHT22;65797;47.352;8.164;2023-06-19T12:57:28;31.50;1.00
76838;DHT22;65797;47.352;8.164;2023-06-19T12:59:53;31.60;1.00
76838;DHT22;65797;47.352;8.164;2023-06-19T13:15:16;30.60;1.00
76838;DHT22;65797;47.352;8.164;2023-06-19T13:22:52;29.40;1.00
76838;DHT22;65797;47.352;8.164;2023-06-19T13:25:19;29.60;1.00
76838;DHT22;65797;47.352;8.164;2023-06-19T13:27:45;29.60;1.00
76838;DHT22;65797;47.352;8.164;2023-06-19T13:30:11;29.80;1.00
76838;DHT22;65797;47.352;8.164;2023-06-19T13:32:37;29.70;1.00
76838;DHT22;65797;47.352;8.164;2023-06-19T13:35:04;30.00;1.00
76838;DHT22;65797;47.352;8.164;2023-06-19T13:37:30;30.40;1.00
76838;DHT22;65797;47.352;8.164;2023-06-19T13:39:56;30.60;1.00
76838;DHT22;65797;47.352;8.164;2023-06-19T13:42:23;30.60;1.00
76838;DHT22;65797;47.352;8.164;2023-06-19T13:57:44;32.30;1.00
76838;DHT22;65797;47.352;8.164;2023-06-19T14:05:49;31.60;1.00
76838;DHT22;65797;47.352;8.164;2023-06-19T14:26:23;32.10;1.00
76838;DHT22;65797;47.352;8.164;2023-06-19T14:28:48;32.30;1.00
76838;DHT22;65797;47.352;8.164;2023-06-19T14:31:14;32.40;1.00
76838;DHT22;65797;47.352;8.164;2023-06-19T14:33:41;32.40;1.00
76838;DHT22;65797;47.352;8.164;2023-06-19T14:36:06;32.20;1.00
76838;DHT22;65797;47.352;8.164;2023-06-19T14:38:33;32.30;1.00
76838;DHT22;65797;47.352;8.164;2023-06-19T14:41:00;32.10;1.00
76838;DHT22;65797;47.352;8.164;2023-06-19T14:43:27;32.20;1.00
76838;DHT22;65797;47.352;8.164;2023-06-19T14:45:52;32.10;1.00
76838;DHT22;65797;47.352;8.164;2023-06-19T14:48:18;32.40;1.00
76838;DHT22;65797;47.352;8.164;2023-06-19T14:50:44;32.40;1.00
76838;DHT22;65797;47.352;8.164;2023-06-19T14:53:11;32.70;1.00
76838;DHT22;65797;47.352;8.164;2023-06-19T14:55:36;32.70;1.00
76838;DHT22;65797;47.352;8.164;2023-06-19T14:58:05;33.20;1.00
76838;DHT22;65797;47.352;8.164;2023-06-19T15:00:31;33.50;1.00
76838;DHT22;65797;47.352;8.164;2023-06-19T15:02:57;33.20;1.00
76838;DHT22;65797;47.352;8.164;2023-06-19T15:05:22;33.60;1.00
76838;DHT22;65797;47.352;8.164;2023-06-19T15:07:48;33.90;1.00
76838;DHT22;65797;47.352;8.164;2023-06-19T15:10:14;33.50;1.00
76838;DHT22;65797;47.352;8.164;2023-06-19T15:12:40;33.30;1.00
76838;DHT22;65797;47.352;8.164;2023-06-19T15:15:06;33.50;1.00
76838;DHT22;65797;47.352;8.164;2023-06-19T15:20:08;33.40;1.00
76838;DHT22;65797;47.352;8.164;2023-06-19T15:22:34;33.20;1.00
76838;DHT22;65797;47.352;8.164;2023-06-19T15:25:02;32.80;1.00
76838;DHT22;65797;47.352;8.164;2023-06-19T15:27:28;32.20;1.00
76838;DHT22;65797;47.352;8.164;2023-06-19T15:29:54;32.30;1.00
76838;DHT22;65797;47.352;8.164;2023-06-19T15:32:20;32.10;1.00
76838;DHT22;65797;47.352;8.164;2023-06-19T15:34:46;32.00;1.00
76838;DHT22;65797;47.352;8.164;2023-06-19T15:37:11;31.70;1.00
76838;DHT22;65797;47.352;8.164;2023-06-19T15:39:37;31.70;1.00
76838;DHT22;65797;47.352;8.164;2023-06-19T15:42:03;31.90;1.00
76838;DHT22;65797;47.352;8.164;2023-06-19T15:44:29;31.50;1.00
76838;DHT22;65797;47.352;8.164;2023-06-19T15:46:55;31.20;1.00
76838;DHT22;65797;47.352;8.164;2023-06-19T15:49:20;31.10;1.00
76838;DHT22;65797;47.352;8.164;2023-06-19T15:51:46;31.30;1.00
76838;DHT22;65797;47.352;8.164;2023-06-19T16:04:31;30.30;1.00
76838;DHT22;65797;47.352;8.164;2023-06-19T16:06:57;30.40;1.00
76838;DHT22;65797;47.352;8.164;2023-06-19T16:09:22;30.00;1.00
76838;DHT22;65797;47.352;8.164;2023-06-19T16:11:48;29.80;1.00
76838;DHT22;65797;47.352;8.164;2023-06-19T16:14:16;29.70;1.00
76838;DHT22;65797;47.352;8.164;2023-06-19T16:16:41;30.00;1.00
76838;DHT22;65797;47.352;8.164;2023-06-19T16:19:07;30.10;1.00
76838;DHT22;65797;47.352;8.164;2023-06-19T16:21:33;29.90;1.00
76838;DHT22;65797;47.352;8.164;2023-06-19T16:23:58;29.90;1.00
76838;DHT22;65797;47.352;8.164;2023-06-19T16:26:24;29.80;1.00
76838;DHT22;65797;47.352;8.164;2023-06-19T16:28:50;29.50;1.00
76838;DHT22;65797;47.352;8.164;2023-06-19T16:31:18;29.50;1.00
76838;DHT22;65797;47.352;8.164;2023-06-19T16:33:44;29.20;1.00
76838;DHT22;65797;47.352;8.164;2023-06-19T16:36:11;29.10;1.00
76838;DHT22;65797;47.352;8.164;2023-06-19T16:38:37;29.00;1.00
76838;DHT22;65797;47.352;8.164;2023-06-19T16:41:03;29.20;1.00
76838;DHT22;65797;47.352;8.164;2023-06-19T16:43:29;29.20;1.00
76838;DHT22;65797;47.352;8.164;2023-06-19T16:45:55;29.30;1.00
76838;DHT22;65797;47.352;8.164;2023-06-19T16:48:21;29.00;1.00
76838;DHT22;65797;47.352;8.164;2023-06-19T16:50:46;28.90;1.00
76838;DHT22;65797;47.352;8.164;2023-06-19T16:53:12;29.00;1.00
76838;DHT22;65797;47.352;8.164;2023-06-19T16:55:38;28.90;1.00
76838;DHT22;65797;47.352;8.164;2023-06-19T16:58:04;29.10;1.00
76838;DHT22;65797;47.352;8.164;2023-06-19T17:00:30;29.20;1.00
76838;DHT22;65797;47.352;8.164;2023-06-19T17:02:56;29.00;1.00
76838;DHT22;65797;47.352;8.164;2023-06-19T17:05:23;29.00;1.00
76838;DHT22;65797;47.352;8.164;2023-06-19T17:07:50;28.70;1.00
76838;DHT22;65797;47.352;8.164;2023-06-19T17:10:16;28.60;1.00
76838;DHT22;65797;47.352;8.164;2023-06-19T18:01:51;27.00;1.00
76838;DHT22;65797;47.352;8.164;2023-06-19T18:04:17;26.70;1.00
76838;DHT22;65797;47.352;8.164;2023-06-19T18:06:42;26.70;1.00
76838;DHT22;65797;47.352;8.164;2023-06-19T18:09:08;26.40;1.00
76838;DHT22;65797;47.352;8.164;2023-06-19T18:11:34;26.30;1.00
76838;DHT22;65797;47.352;8.164;2023-06-19T18:14:00;26.20;1.00
76838;DHT22;65797;47.352;8.164;2023-06-19T18:16:26;26.10;1.00
76838;DHT22;65797;47.352;8.164;2023-06-19T18:18:54;26.00;1.00
76838;DHT22;65797;47.352;8.164;2023-06-19T18:21:20;26.00;1.00
76838;DHT22;65797;47.352;8.164;2023-06-19T18:23:46;26.10;1.00
76838;DHT22;65797;47.352;8.164;2023-06-19T18:26:12;26.10;1.00
76838;DHT22;65797;47.352;8.164;2023-06-19T18:28:37;26.20;1.00
76838;DHT22;65797;47.352;8.164;2023-06-19T18:31:03;26.10;1.00
76838;DHT22;65797;47.352;8.164;2023-06-19T18:33:29;26.10;1.00